createdAt,value
2017-11-14T00:02:01.352Z,19.83
2017-11-14T00:04:27.647Z,16.83
2017-11-14T00:06:54.727Z,14.70
2017-11-14T00:09:20.921Z,15.00
2017-11-14T00:11:48.181Z,15.50
2017-11-14T00:14:14.385Z,14.97
2017-11-14T00:16:40.611Z,25.00
2017-11-14T00:19:06.841Z,33.40
2017-11-14T00:21:33.095Z,17.50
2017-11-14T00:23:59.356Z,11.90
2017-11-14T00:26:25.587Z,15.77
2017-11-14T00:28:51.853Z,16.83
2017-11-14T00:31:18.063Z,14.80
2017-11-14T00:33:44.310Z,12.70
2017-11-14T00:36:10.507Z,18.40
2017-11-14T00:38:36.729Z,11.73
2017-11-14T00:41:02.957Z,13.13
2017-11-14T00:43:29.172Z,15.47
2017-11-14T00:45:55.380Z,10.47
2017-11-14T00:48:21.627Z,13.50
2017-11-14T00:50:48.631Z,13.63
2017-11-14T00:53:15.683Z,16.00
2017-11-14T00:55:42.127Z,14.60
2017-11-14T00:58:08.348Z,11.27
2017-11-14T01:00:35.329Z,14.10
2017-11-14T01:03:01.595Z,10.10
2017-11-14T01:05:28.495Z,11.40
2017-11-14T01:07:55.413Z,10.93
2017-11-14T01:10:21.701Z,12.50
2017-11-14T01:12:47.945Z,10.40
2017-11-14T01:15:14.168Z,13.27
2017-11-14T01:17:40.420Z,13.47
2017-11-14T01:20:07.391Z,10.83
2017-11-14T01:22:33.641Z,12.13
2017-11-14T01:24:59.861Z,10.67
2017-11-14T01:27:26.265Z,12.10
2017-11-14T01:29:52.457Z,13.20
2017-11-14T01:32:18.695Z,14.73
2017-11-14T01:34:45.709Z,16.20
2017-11-14T01:37:11.959Z,11.10
2017-11-14T01:39:38.189Z,15.23
2017-11-14T01:42:04.523Z,20.40
2017-11-14T01:44:30.740Z,11.93
2017-11-14T01:46:56.996Z,11.60
2017-11-14T01:49:23.998Z,13.47
2017-11-14T01:51:51.020Z,15.03
2017-11-14T01:54:17.290Z,10.70
2017-11-14T01:56:43.600Z,16.27
2017-11-14T01:59:09.967Z,12.50
2017-11-14T02:01:36.260Z,11.23
2017-11-14T02:04:02.531Z,11.90
2017-11-14T02:06:28.825Z,13.00
2017-11-14T02:08:55.959Z,14.87
2017-11-14T02:11:22.256Z,10.07
2017-11-14T02:13:48.599Z,11.13
2017-11-14T02:16:14.918Z,11.73
2017-11-14T02:18:41.166Z,10.60
2017-11-14T02:21:07.385Z,8.80
2017-11-14T02:23:33.643Z,15.33
2017-11-14T02:26:00.777Z,11.93
2017-11-14T02:28:27.007Z,10.57
2017-11-14T02:30:53.221Z,10.63
2017-11-14T02:33:19.463Z,8.17
2017-11-14T02:35:45.673Z,13.50
2017-11-14T02:38:11.931Z,12.40
2017-11-14T02:40:38.161Z,9.87
2017-11-14T02:43:04.491Z,9.80
2017-11-14T02:45:30.708Z,11.13
2017-11-14T02:47:57.119Z,12.63
2017-11-14T02:50:23.359Z,16.07
2017-11-14T02:52:49.616Z,19.40
2017-11-14T02:55:15.852Z,15.40
2017-11-14T02:57:42.111Z,13.87
2017-11-14T03:00:09.081Z,15.67
2017-11-14T03:02:35.313Z,13.87
2017-11-14T03:05:01.578Z,14.73
2017-11-14T03:07:27.793Z,15.43
2017-11-14T03:09:54.176Z,17.80
2017-11-14T03:12:20.420Z,17.50
2017-11-14T03:14:46.644Z,19.70
2017-11-14T03:17:12.874Z,17.50
2017-11-14T03:19:39.170Z,20.07
2017-11-14T03:22:06.157Z,18.77
2017-11-14T03:24:32.382Z,16.10
2017-11-14T03:26:58.619Z,24.33
2017-11-14T03:29:24.856Z,20.50
2017-11-14T03:31:51.077Z,24.50
2017-11-14T03:34:17.359Z,26.43
2017-11-14T03:36:44.347Z,22.63
2017-11-14T03:39:10.608Z,24.43
2017-11-14T03:41:36.856Z,21.03
2017-11-14T03:44:03.121Z,26.23
2017-11-14T03:46:29.452Z,20.37
2017-11-14T03:48:56.054Z,27.33
2017-11-14T03:51:23.268Z,21.33
2017-11-14T03:53:50.343Z,24.70
2017-11-14T03:56:17.316Z,19.53
2017-11-14T03:58:44.314Z,23.17
2017-11-14T04:01:10.523Z,22.83
2017-11-14T04:03:36.762Z,22.00
2017-11-14T04:06:02.994Z,21.83
2017-11-14T04:08:29.304Z,25.07
2017-11-14T04:10:55.576Z,24.93
2017-11-14T04:13:22.674Z,64.67
2017-11-14T04:15:48.912Z,124.27
2017-11-14T04:18:15.127Z,130.07
2017-11-14T04:20:41.357Z,167.70
2017-11-14T04:23:07.575Z,142.53
2017-11-14T04:25:33.822Z,80.20
2017-11-14T04:28:00.042Z,156.67
2017-11-14T04:30:26.504Z,30.23
2017-11-14T04:32:52.767Z,74.87
2017-11-14T04:35:19.017Z,65.07
2017-11-14T04:37:45.247Z,59.93
2017-11-14T04:40:11.480Z,60.70
2017-11-14T04:42:37.683Z,43.23
2017-11-14T04:45:04.675Z,28.33
2017-11-14T04:47:30.892Z,93.37
2017-11-14T04:49:57.116Z,174.60
2017-11-14T04:52:23.376Z,82.30
2017-11-14T04:54:49.600Z,52.93
2017-11-14T04:57:15.816Z,103.83
2017-11-14T04:59:42.046Z,37.23
2017-11-14T05:02:08.276Z,68.77
2017-11-14T05:04:34.502Z,57.93
2017-11-14T05:07:01.339Z,133.07
2017-11-14T05:09:27.782Z,145.90
2017-11-14T05:11:54.168Z,278.23
2017-11-14T05:14:20.596Z,82.80
2017-11-14T05:16:46.899Z,142.63
2017-11-14T05:19:13.877Z,134.50
2017-11-14T05:21:40.112Z,126.20
2017-11-14T05:24:06.413Z,80.37
2017-11-14T05:26:32.635Z,192.47
2017-11-14T05:28:59.671Z,75.13
2017-11-14T05:31:26.725Z,100.10
2017-11-14T05:33:53.014Z,82.60
2017-11-14T05:36:19.319Z,51.33
2017-11-14T05:38:45.619Z,47.73
2017-11-14T05:41:12.643Z,44.87
2017-11-14T05:43:38.875Z,43.00
2017-11-14T05:46:05.109Z,38.70
2017-11-14T05:48:31.324Z,41.87
2017-11-14T05:50:57.580Z,42.60
2017-11-14T05:53:24.025Z,44.70
2017-11-14T05:55:50.276Z,34.40
2017-11-14T05:58:16.520Z,46.90
2017-11-14T06:00:42.783Z,30.23
2017-11-14T06:03:09.023Z,36.30
2017-11-14T06:05:36.198Z,31.83
2017-11-14T06:08:02.497Z,36.13
2017-11-14T06:10:29.628Z,46.37
2017-11-14T06:12:55.896Z,56.90
2017-11-14T06:15:22.149Z,47.10
2017-11-14T06:17:48.374Z,62.00
2017-11-14T06:20:14.798Z,56.67
2017-11-14T06:22:41.274Z,77.53
2017-11-14T06:25:07.958Z,77.80
2017-11-14T06:27:34.350Z,77.50
2017-11-14T06:30:00.834Z,78.00
2017-11-14T06:32:27.151Z,101.70
2017-11-14T06:34:53.411Z,68.67
2017-11-14T06:37:19.716Z,73.20
2017-11-14T06:39:45.987Z,62.50
2017-11-14T06:42:12.231Z,64.53
2017-11-14T06:44:38.552Z,89.80
2017-11-14T06:47:06.424Z,80.37
2017-11-14T06:49:32.715Z,61.97
2017-11-14T06:51:59.296Z,58.40
2017-11-14T06:54:26.327Z,75.97
2017-11-14T06:56:52.589Z,70.50
2017-11-14T06:59:19.553Z,88.33
2017-11-14T07:01:45.816Z,103.73
2017-11-14T07:04:12.036Z,133.77
2017-11-14T07:06:38.272Z,153.43
2017-11-14T07:09:04.511Z,64.50
2017-11-14T07:11:30.922Z,88.50
2017-11-14T07:13:57.218Z,142.57
2017-11-14T07:16:23.467Z,96.87
2017-11-14T07:18:50.651Z,93.40
2017-11-14T07:21:16.878Z,54.97
2017-11-14T07:23:43.242Z,159.70
2017-11-14T07:26:09.574Z,101.27
2017-11-14T07:28:36.576Z,85.57
2017-11-14T07:31:02.797Z,100.77
2017-11-14T07:33:29.038Z,90.17
2017-11-14T07:35:56.004Z,94.70
2017-11-14T07:38:22.252Z,86.03
2017-11-14T07:40:49.207Z,72.83
2017-11-14T07:43:15.421Z,63.30
2017-11-14T07:45:42.512Z,114.37
2017-11-14T07:48:09.712Z,85.30
2017-11-14T07:50:35.999Z,81.00
2017-11-14T07:53:02.584Z,98.57
2017-11-14T07:55:28.788Z,93.93
2017-11-14T07:57:55.274Z,75.33
2017-11-14T08:00:21.520Z,69.63
2017-11-14T08:02:47.791Z,62.40
2017-11-14T08:05:14.923Z,51.93
2017-11-14T08:07:42.042Z,58.63
2017-11-14T08:10:08.282Z,56.17
2017-11-14T08:12:34.551Z,62.43
2017-11-14T08:15:01.517Z,57.23
2017-11-14T08:17:28.917Z,66.43
2017-11-14T08:19:55.953Z,64.77
2017-11-14T08:22:22.209Z,60.60
2017-11-14T08:24:48.448Z,64.10
2017-11-14T08:27:15.459Z,66.43
2017-11-14T08:29:41.752Z,69.17
2017-11-14T08:32:07.957Z,69.73
2017-11-14T08:34:34.984Z,64.43
2017-11-14T08:37:02.224Z,62.13
2017-11-14T08:39:28.490Z,64.30
2017-11-14T08:41:54.763Z,66.37
2017-11-14T08:44:21.219Z,63.00
2017-11-14T08:46:47.683Z,66.70
2017-11-14T08:49:13.993Z,70.80
2017-11-14T08:51:40.344Z,55.60
2017-11-14T08:54:07.328Z,59.23
2017-11-14T08:56:33.558Z,64.43
2017-11-14T08:58:59.805Z,36.27
2017-11-14T09:01:26.043Z,44.57
2017-11-14T09:03:52.323Z,43.23
2017-11-14T09:06:19.695Z,56.17
2017-11-14T09:08:45.990Z,45.40
2017-11-14T09:11:13.110Z,45.00
2017-11-14T09:13:40.464Z,42.30
2017-11-14T09:16:07.534Z,46.37
2017-11-14T09:18:34.559Z,44.20
2017-11-14T09:21:01.052Z,49.63
2017-11-14T09:23:29.580Z,46.03
2017-11-14T09:25:56.316Z,42.57
2017-11-14T09:28:22.825Z,48.60
2017-11-14T09:30:49.172Z,52.47
2017-11-14T09:33:15.643Z,48.17
2017-11-14T09:35:41.893Z,50.90
2017-11-14T09:38:09.025Z,47.77
2017-11-14T09:40:35.866Z,47.47
2017-11-14T09:43:02.783Z,44.20
2017-11-14T09:45:29.056Z,44.27
2017-11-14T09:47:55.432Z,45.77
2017-11-14T09:50:21.743Z,46.07
2017-11-14T09:52:50.210Z,44.13
2017-11-14T09:55:24.282Z,51.10
2017-11-14T09:57:50.644Z,53.93
2017-11-14T10:00:16.882Z,57.57
2017-11-14T10:02:43.711Z,41.30
2017-11-14T10:05:09.978Z,52.70
2017-11-14T10:07:37.602Z,51.53
2017-11-14T10:10:03.910Z,46.57
2017-11-14T10:12:30.614Z,56.30
2017-11-14T10:14:57.763Z,55.53
2017-11-14T10:17:24.564Z,61.50
2017-11-14T10:19:50.852Z,56.17
2017-11-14T10:22:20.971Z,56.43
2017-11-14T10:24:49.836Z,56.33
2017-11-14T10:27:16.065Z,51.47
2017-11-14T10:29:42.356Z,61.27
2017-11-14T10:32:08.599Z,45.20
2017-11-14T10:34:34.936Z,57.70
2017-11-14T10:37:01.232Z,55.67
2017-11-14T10:39:27.651Z,61.47
2017-11-14T10:41:54.015Z,52.50
2017-11-14T10:44:20.248Z,64.13
2017-11-14T10:46:47.323Z,68.70
2017-11-14T10:49:13.694Z,64.87
2017-11-14T10:51:40.068Z,66.30
2017-11-14T10:54:07.344Z,58.80
2017-11-14T10:56:33.678Z,62.83
2017-11-14T10:59:04.011Z,55.40
2017-11-14T11:01:33.926Z,60.13
2017-11-14T11:04:00.383Z,54.00
2017-11-14T11:06:26.811Z,57.80
2017-11-14T11:08:53.987Z,53.63
2017-11-14T11:11:20.249Z,63.20
2017-11-14T11:13:47.300Z,50.87
2017-11-14T11:16:13.728Z,51.77
2017-11-14T11:18:39.980Z,55.83
2017-11-14T11:21:06.264Z,45.97
2017-11-14T11:23:33.379Z,49.10
2017-11-14T11:25:59.865Z,47.40
2017-11-14T11:28:26.107Z,47.33
2017-11-14T11:30:52.435Z,43.93
2017-11-14T11:33:19.434Z,52.53
2017-11-14T11:35:46.213Z,52.43
2017-11-14T11:38:12.626Z,46.47
2017-11-14T11:40:38.933Z,41.37
2017-11-14T11:43:05.455Z,40.10
2017-11-14T11:45:38.739Z,38.17
2017-11-14T11:48:05.744Z,39.93
2017-11-14T11:50:32.028Z,33.60
2017-11-14T11:52:58.268Z,41.67
2017-11-14T11:55:24.609Z,31.37
2017-11-14T11:57:50.864Z,35.90
2017-11-14T12:00:17.170Z,39.83
2017-11-14T12:02:43.437Z,34.10
2017-11-14T12:05:10.405Z,30.23
2017-11-14T12:07:39.405Z,37.37
2017-11-14T12:10:06.931Z,36.53
2017-11-14T12:12:33.963Z,29.10
2017-11-14T12:15:00.207Z,28.00
2017-11-14T12:17:27.456Z,23.30
2017-11-14T12:19:54.471Z,31.37
2017-11-14T12:22:20.872Z,24.70
2017-11-14T12:24:47.183Z,26.80
2017-11-14T12:27:14.997Z,28.73
2017-11-14T12:29:41.406Z,42.47
2017-11-14T12:32:07.683Z,32.20
2017-11-14T12:34:34.981Z,26.97
2017-11-14T12:37:01.450Z,23.47
2017-11-14T12:39:32.761Z,25.30
2017-11-14T12:41:59.061Z,29.20
2017-11-14T12:44:26.124Z,26.80
2017-11-14T12:46:52.449Z,32.40
2017-11-14T12:49:18.719Z,24.50
2017-11-14T12:51:45.046Z,23.27
2017-11-14T12:54:11.440Z,29.90
2017-11-14T12:56:37.692Z,30.90
2017-11-14T12:59:04.028Z,25.20
2017-11-14T13:01:30.351Z,22.80
2017-11-14T13:03:56.870Z,25.93
2017-11-14T13:06:23.208Z,40.37
2017-11-14T13:08:49.625Z,31.90
2017-11-14T13:11:15.896Z,34.60
2017-11-14T13:13:42.182Z,21.93
2017-11-14T13:16:08.430Z,25.50
2017-11-14T13:18:34.924Z,25.43
2017-11-14T13:21:01.979Z,25.10
2017-11-14T13:23:29.031Z,24.53
2017-11-14T13:25:56.055Z,26.33
2017-11-14T13:28:22.581Z,31.03
2017-11-14T13:30:49.222Z,20.97
2017-11-14T13:33:16.320Z,32.43
2017-11-14T13:35:42.577Z,23.07
2017-11-14T13:38:09.010Z,24.07
2017-11-14T13:40:36.498Z,26.10
2017-11-14T13:43:02.897Z,13.73
2017-11-14T13:45:29.216Z,15.30
2017-11-14T13:47:55.665Z,15.07
2017-11-14T13:50:21.890Z,16.10
2017-11-14T13:52:48.421Z,14.80
2017-11-14T13:55:15.081Z,14.33
2017-11-14T13:57:42.111Z,15.43
2017-11-14T14:00:08.424Z,15.37
2017-11-14T14:02:35.006Z,16.50
2017-11-14T14:05:01.432Z,12.97
2017-11-14T14:07:27.940Z,23.07
2017-11-14T14:09:54.645Z,12.13
2017-11-14T14:12:21.124Z,16.27
2017-11-14T14:14:47.392Z,13.53
2017-11-14T14:17:14.425Z,14.10
2017-11-14T14:19:41.429Z,17.50
2017-11-14T14:22:07.930Z,8.13
2017-11-14T14:24:34.178Z,14.90
2017-11-14T14:27:00.469Z,11.03
2017-11-14T14:29:27.502Z,14.43
2017-11-14T14:31:53.839Z,14.60
2017-11-14T14:34:20.213Z,17.13
2017-11-14T14:36:49.074Z,19.23
2017-11-14T14:39:15.823Z,12.53
2017-11-14T14:41:42.144Z,12.17
2017-11-14T14:44:08.417Z,17.73
2017-11-14T14:46:34.671Z,21.23
2017-11-14T14:49:00.923Z,20.67
2017-11-14T14:51:27.956Z,13.13
2017-11-14T14:53:54.953Z,19.10
2017-11-14T14:56:21.179Z,10.37
2017-11-14T14:58:47.453Z,15.93
2017-11-14T15:01:13.766Z,11.90
2017-11-14T15:03:40.071Z,15.50
2017-11-14T15:06:06.342Z,30.60
2017-11-14T15:08:33.388Z,19.43
2017-11-14T15:10:59.678Z,23.40
2017-11-14T15:13:25.954Z,17.50
2017-11-14T15:15:52.273Z,18.93
2017-11-14T15:18:19.283Z,11.27
2017-11-14T15:20:45.555Z,21.80
2017-11-14T15:23:11.829Z,13.20
2017-11-14T15:25:38.255Z,13.53
2017-11-14T15:28:04.711Z,26.40
2017-11-14T15:30:31.158Z,11.73
2017-11-14T15:33:04.621Z,20.30
2017-11-14T15:35:30.904Z,12.67
2017-11-14T15:37:57.155Z,10.50
2017-11-14T15:40:24.265Z,10.83
2017-11-14T15:42:50.502Z,15.40
2017-11-14T15:45:16.828Z,19.67
2017-11-14T15:47:43.087Z,12.70
2017-11-14T15:50:10.146Z,11.40
2017-11-14T15:52:36.477Z,13.20
2017-11-14T15:55:02.805Z,13.50
2017-11-14T15:57:29.049Z,20.83
2017-11-14T15:59:55.325Z,11.13
2017-11-14T16:02:23.180Z,15.63
2017-11-14T16:04:49.436Z,12.60
2017-11-14T16:07:16.415Z,8.57
2017-11-14T16:09:43.103Z,17.00
2017-11-14T16:12:09.357Z,17.37
2017-11-14T16:14:36.342Z,6.80
2017-11-14T16:17:06.828Z,17.20
2017-11-14T16:19:33.570Z,16.83
2017-11-14T16:22:00.792Z,14.90
2017-11-14T16:24:27.068Z,7.17
2017-11-14T16:26:53.558Z,7.47
2017-11-14T16:29:19.868Z,17.40
2017-11-14T16:31:46.117Z,22.30
2017-11-14T16:34:12.516Z,7.40
2017-11-14T16:36:38.839Z,14.83
2017-11-14T16:39:05.141Z,13.50
2017-11-14T16:41:31.922Z,9.60
2017-11-14T16:43:58.417Z,12.63
2017-11-14T16:46:24.764Z,7.40
2017-11-14T16:48:51.202Z,12.00
2017-11-14T16:51:17.568Z,20.97
2017-11-14T16:53:44.837Z,8.70
2017-11-14T16:56:11.539Z,19.00
2017-11-14T16:58:40.802Z,9.47
2017-11-14T17:03:42.167Z,12.83
2017-11-14T17:06:10.150Z,13.13
2017-11-14T17:08:37.180Z,9.53
2017-11-14T17:11:07.034Z,12.13
2017-11-14T17:13:33.863Z,12.13
2017-11-14T17:16:00.260Z,11.67
2017-11-14T17:18:27.936Z,9.23
2017-11-14T17:20:54.434Z,8.20
2017-11-14T17:23:31.315Z,8.87
2017-11-14T17:25:58.304Z,13.43
2017-11-14T17:28:25.378Z,11.63
2017-11-14T17:30:51.834Z,10.83
2017-11-14T17:33:18.844Z,7.73
2017-11-14T17:35:45.928Z,17.13
2017-11-14T17:38:12.199Z,15.20
2017-11-14T17:40:38.844Z,13.03
2017-11-14T17:43:06.292Z,16.40
2017-11-14T17:45:33.605Z,9.33
2017-11-14T17:48:01.612Z,15.07
2017-11-14T17:50:31.428Z,12.80
2017-11-14T17:52:58.955Z,12.80
2017-11-14T17:55:25.379Z,12.40
2017-11-14T17:57:52.400Z,12.13
2017-11-14T18:00:18.652Z,10.57
2017-11-14T18:02:58.475Z,9.90
2017-11-14T18:05:25.211Z,9.43
2017-11-14T18:07:54.477Z,176.27
2017-11-14T18:10:21.273Z,30.60
2017-11-14T18:12:47.801Z,30.73
2017-11-14T18:15:14.184Z,32.50
2017-11-14T18:17:42.246Z,18.70
2017-11-14T18:20:09.443Z,23.50
2017-11-14T18:22:35.939Z,30.43
2017-11-14T18:25:02.528Z,12.07
2017-11-14T18:27:29.194Z,21.30
2017-11-14T18:29:59.534Z,17.90
2017-11-14T18:32:26.334Z,20.40
2017-11-14T18:34:55.033Z,21.97
2017-11-14T18:37:21.536Z,20.13
2017-11-14T18:39:48.690Z,22.17
2017-11-14T18:42:15.066Z,29.80
2017-11-14T18:44:41.641Z,25.20
2017-11-14T18:47:17.524Z,19.90
2017-11-14T18:49:45.091Z,19.33
2017-11-14T18:52:11.550Z,20.70
2017-11-14T18:54:37.960Z,13.77
2017-11-14T18:57:05.820Z,25.13
2017-11-14T18:59:32.161Z,17.83
2017-11-14T19:01:58.502Z,15.20
2017-11-14T19:04:26.668Z,17.20
2017-11-14T19:06:53.638Z,18.73
2017-11-14T19:09:19.884Z,20.47
2017-11-14T19:11:46.128Z,18.07
2017-11-14T19:14:12.462Z,20.67
2017-11-14T19:16:39.996Z,15.17
2017-11-14T19:19:06.278Z,17.40
2017-11-14T19:21:32.565Z,18.00
2017-11-14T19:23:59.040Z,15.97
2017-11-14T19:26:25.382Z,23.13
2017-11-14T19:28:52.561Z,17.07
2017-11-14T19:31:18.769Z,10.33
2017-11-14T19:33:52.033Z,19.05
2017-11-14T19:36:19.337Z,26.83
2017-11-14T19:38:46.807Z,12.90
2017-11-14T19:41:13.039Z,15.33
2017-11-14T19:43:39.264Z,29.80
2017-11-14T19:46:05.777Z,19.93
2017-11-14T19:48:32.397Z,15.00
2017-11-14T19:50:58.877Z,31.70
2017-11-14T19:53:25.279Z,29.03
2017-11-14T19:55:51.521Z,19.60
2017-11-14T19:58:17.953Z,17.00
2017-11-14T20:00:46.119Z,17.80
2017-11-14T20:03:13.467Z,33.37
2017-11-14T20:05:39.670Z,18.70
2017-11-14T20:08:06.663Z,24.20
2017-11-14T20:10:33.179Z,23.23
2017-11-14T20:12:59.476Z,31.43
2017-11-14T20:15:26.486Z,21.50
2017-11-14T20:17:52.827Z,20.50
2017-11-14T20:20:19.087Z,23.10
2017-11-14T20:22:45.417Z,25.47
2017-11-14T20:25:12.412Z,49.13
2017-11-14T20:27:38.882Z,15.53
2017-11-14T20:30:05.899Z,21.33
2017-11-14T20:32:32.408Z,21.80
2017-11-14T20:34:58.968Z,20.10
2017-11-14T20:37:25.358Z,31.33
2017-11-14T20:39:52.847Z,22.03
2017-11-14T20:42:19.668Z,22.23
2017-11-14T20:44:48.607Z,15.53
2017-11-14T20:49:56.121Z,27.60
2017-11-14T20:52:22.449Z,23.10
2017-11-14T20:54:48.969Z,19.93
2017-11-14T20:57:16.072Z,17.73
2017-11-14T20:59:42.479Z,18.70
2017-11-14T21:02:08.756Z,22.70
2017-11-14T21:04:35.099Z,25.63
2017-11-14T21:07:01.400Z,58.80
2017-11-14T21:09:28.590Z,27.83
2017-11-14T21:11:54.885Z,27.57
2017-11-14T21:14:21.276Z,30.23
2017-11-14T21:16:48.278Z,27.07
2017-11-14T21:19:14.729Z,25.80
2017-11-14T21:21:40.945Z,31.17
2017-11-14T21:24:08.377Z,31.40
2017-11-14T21:26:34.756Z,21.07
2017-11-14T21:29:01.041Z,27.10
2017-11-14T21:31:27.472Z,34.40
2017-11-14T21:33:53.926Z,28.00
2017-11-14T21:36:20.150Z,20.47
2017-11-14T21:38:46.872Z,29.60
2017-11-14T21:41:15.423Z,31.47
2017-11-14T21:43:42.413Z,28.80
2017-11-14T21:46:08.628Z,32.70
2017-11-14T21:48:34.878Z,30.70
2017-11-14T21:51:01.171Z,33.97
2017-11-14T21:53:27.424Z,28.83
2017-11-14T21:55:53.703Z,29.17
2017-11-14T21:58:20.029Z,31.33
2017-11-14T22:00:47.350Z,33.63
2017-11-14T22:03:14.518Z,39.30
2017-11-14T22:05:41.057Z,31.60
2017-11-14T22:08:11.686Z,34.50
2017-11-14T22:10:39.010Z,34.27
2017-11-14T22:13:05.310Z,37.53
2017-11-14T22:15:32.411Z,34.33
2017-11-14T22:17:58.723Z,36.03
2017-11-14T22:20:25.080Z,33.70
2017-11-14T22:22:52.088Z,29.27
2017-11-14T22:25:18.413Z,40.63
2017-11-14T22:27:44.628Z,31.50
2017-11-14T22:30:10.921Z,34.90
2017-11-14T22:32:37.892Z,30.30
2017-11-14T22:35:04.168Z,33.10
2017-11-14T22:37:30.441Z,44.13
2017-11-14T22:40:13.108Z,30.73
2017-11-14T22:42:40.128Z,33.27
2017-11-14T22:45:14.626Z,34.50
2017-11-14T22:47:40.940Z,30.83
2017-11-14T22:50:07.698Z,32.17
2017-11-14T22:52:35.733Z,35.30
2017-11-14T22:55:02.875Z,36.43
2017-11-14T22:57:29.237Z,32.00
2017-11-14T22:59:55.591Z,39.03
2017-11-14T23:02:21.913Z,32.90
2017-11-14T23:04:48.290Z,38.00
2017-11-14T23:07:15.408Z,35.57
2017-11-14T23:09:41.741Z,36.77
2017-11-14T23:12:08.048Z,31.00
2017-11-14T23:14:34.347Z,40.03
2017-11-14T23:17:01.520Z,35.23
2017-11-14T23:19:28.029Z,44.13
2017-11-14T23:21:55.490Z,32.70
2017-11-14T23:24:23.896Z,46.20
2017-11-14T23:26:50.148Z,34.43
2017-11-14T23:29:16.414Z,34.83
2017-11-14T23:31:42.744Z,40.13
2017-11-14T23:34:10.416Z,33.67
2017-11-14T23:36:36.950Z,42.97
2017-11-14T23:39:03.349Z,42.03
2017-11-14T23:41:29.632Z,36.83
2017-11-14T23:43:56.633Z,35.80
2017-11-14T23:46:22.903Z,41.13
2017-11-14T23:48:50.482Z,38.27
2017-11-14T23:51:16.773Z,39.77
2017-11-14T23:53:43.086Z,36.20
2017-11-14T23:56:09.405Z,39.23
2017-11-14T23:58:35.754Z,39.90
